createdAt,value
2023-01-26T00:01:44.788Z,1.90
2023-01-26T00:04:12.231Z,1.90
2023-01-26T00:06:39.248Z,1.90
2023-01-26T00:09:06.259Z,2.00
2023-01-26T00:11:33.215Z,2.10
2023-01-26T00:14:01.552Z,2.10
2023-01-26T00:16:28.832Z,2.10
2023-01-26T00:18:56.705Z,2.10
2023-01-26T00:21:24.374Z,2.10
2023-01-26T00:23:52.953Z,2.20
2023-01-26T00:26:25.636Z,2.30
2023-01-26T00:28:53.609Z,2.20
2023-01-26T00:31:26.828Z,2.10
2023-01-26T00:33:55.493Z,2.00
2023-01-26T00:36:22.642Z,1.80
2023-01-26T00:38:49.742Z,1.80
2023-01-26T00:41:39.080Z,1.70
2023-01-26T00:44:06.190Z,1.70
2023-01-26T00:46:33.168Z,1.80
2023-01-26T00:49:02.327Z,2.00
2023-01-26T00:51:29.321Z,2.00
2023-01-26T00:53:56.784Z,2.10
2023-01-26T00:56:23.857Z,2.00
2023-01-26T00:58:50.799Z,1.80
2023-01-26T01:01:20.386Z,1.70
2023-01-26T01:03:47.324Z,1.70
2023-01-26T01:06:14.500Z,1.80
2023-01-26T01:08:41.459Z,1.80
2023-01-26T01:11:11.275Z,1.80
2023-01-26T01:13:41.145Z,1.80
2023-01-26T01:16:12.235Z,1.80
2023-01-26T01:18:40.491Z,1.80
2023-01-26T01:21:16.877Z,1.80
2023-01-26T01:23:44.628Z,1.80
2023-01-26T01:26:12.803Z,1.90
2023-01-26T01:28:41.029Z,2.00
2023-01-26T01:31:13.159Z,2.00
2023-01-26T01:33:40.486Z,2.00
2023-01-26T01:36:14.974Z,2.10
2023-01-26T01:38:43.208Z,2.10
2023-01-26T01:41:11.435Z,2.00
2023-01-26T01:43:39.683Z,2.00
2023-01-26T01:46:25.056Z,1.90
2023-01-26T01:49:06.096Z,2.00
2023-01-26T01:51:38.744Z,2.00
2023-01-26T01:54:11.834Z,1.90
2023-01-26T01:56:42.595Z,1.80
2023-01-26T01:59:11.705Z,1.90
2023-01-26T02:01:38.611Z,1.90
2023-01-26T02:04:08.428Z,2.00
2023-01-26T02:06:53.174Z,2.10
2023-01-26T02:09:47.451Z,2.00
2023-01-26T02:12:20.711Z,2.00
2023-01-26T02:14:50.397Z,1.90
2023-01-26T02:17:22.090Z,1.90
2023-01-26T02:20:28.180Z,1.90
2023-01-26T02:23:10.527Z,1.90
2023-01-26T02:25:52.218Z,1.80
2023-01-26T02:28:25.865Z,1.80
2023-01-26T02:30:54.817Z,1.90
2023-01-26T02:33:25.676Z,2.00
2023-01-26T02:35:58.072Z,2.00
2023-01-26T02:38:29.538Z,2.10
2023-01-26T02:41:05.811Z,2.20
2023-01-26T02:43:33.283Z,2.20
2023-01-26T02:46:00.488Z,2.40
2023-01-26T02:48:46.056Z,2.40
2023-01-26T02:51:13.082Z,2.40
2023-01-26T02:53:40.219Z,2.50
2023-01-26T02:56:07.447Z,2.50
2023-01-26T02:58:34.675Z,2.40
2023-01-26T03:01:01.770Z,2.30
2023-01-26T03:03:42.007Z,2.10
2023-01-26T03:06:10.717Z,2.10
2023-01-26T03:08:40.824Z,2.20
2023-01-26T03:11:09.267Z,2.20
2023-01-26T03:13:38.789Z,2.20
2023-01-26T03:16:13.633Z,2.20
2023-01-26T03:18:59.918Z,2.20
2023-01-26T03:21:45.314Z,2.20
2023-01-26T03:24:32.897Z,2.30
2023-01-26T03:27:40.055Z,2.10
2023-01-26T03:30:07.441Z,2.00
2023-01-26T03:32:36.659Z,2.00
2023-01-26T03:35:06.847Z,2.10
2023-01-26T03:37:37.049Z,2.20
2023-01-26T03:40:32.977Z,2.20
2023-01-26T03:43:28.813Z,2.20
2023-01-26T03:46:14.589Z,2.20
2023-01-26T03:49:00.094Z,2.20
2023-01-26T03:51:45.317Z,2.20
2023-01-26T03:54:30.666Z,2.20
2023-01-26T03:57:00.553Z,2.20
2023-01-26T03:59:39.179Z,2.20
2023-01-26T04:02:32.096Z,2.00
2023-01-26T04:05:19.026Z,1.90
2023-01-26T04:08:07.774Z,2.00
2023-01-26T04:10:37.295Z,2.00
2023-01-26T04:13:23.722Z,2.10
2023-01-26T04:16:16.024Z,2.00
2023-01-26T04:19:01.529Z,2.00
2023-01-26T04:21:33.445Z,2.10
2023-01-26T04:24:09.915Z,2.00
2023-01-26T04:26:37.688Z,2.00
2023-01-26T04:29:11.596Z,2.00
2023-01-26T04:31:39.653Z,2.00
2023-01-26T04:34:11.062Z,1.90
2023-01-26T04:36:42.164Z,1.90
2023-01-26T04:39:09.730Z,1.90
2023-01-26T04:41:40.682Z,1.90
2023-01-26T04:44:13.606Z,1.90
2023-01-26T04:46:43.383Z,1.80
2023-01-26T04:49:15.307Z,1.90
2023-01-26T04:51:43.016Z,1.80
2023-01-26T04:54:10.465Z,1.80
2023-01-26T04:56:53.355Z,1.70
2023-01-26T04:59:21.018Z,1.70
2023-01-26T05:01:48.350Z,1.60
2023-01-26T05:04:15.491Z,1.50
2023-01-26T05:06:45.808Z,1.60
2023-01-26T05:09:12.814Z,1.60
2023-01-26T05:11:44.177Z,1.60
2023-01-26T05:14:36.997Z,1.50
2023-01-26T05:17:13.963Z,1.60
2023-01-26T05:20:10.271Z,1.70
2023-01-26T05:22:37.476Z,1.80
2023-01-26T05:25:23.477Z,1.90
2023-01-26T05:28:04.300Z,1.80
2023-01-26T05:30:31.852Z,1.80
2023-01-26T05:33:05.079Z,1.80
2023-01-26T05:35:36.504Z,1.80
2023-01-26T05:38:05.702Z,1.90
2023-01-26T05:40:33.752Z,1.90
2023-01-26T05:43:02.791Z,1.80
2023-01-26T05:45:50.473Z,1.80
2023-01-26T05:48:18.455Z,1.80
2023-01-26T05:50:47.853Z,1.80
2023-01-26T05:53:17.599Z,1.80
2023-01-26T05:55:47.167Z,1.70
2023-01-26T05:58:16.674Z,1.70
2023-01-26T06:00:43.648Z,1.60
2023-01-26T06:03:17.497Z,1.70
2023-01-26T06:05:44.937Z,1.70
2023-01-26T06:08:18.212Z,1.70
2023-01-26T06:11:11.839Z,1.60
2023-01-26T06:13:57.286Z,1.60
2023-01-26T06:16:27.199Z,1.60
2023-01-26T06:18:55.759Z,1.60
2023-01-26T06:21:23.025Z,1.70
2023-01-26T06:23:50.022Z,1.60
2023-01-26T06:26:17.055Z,1.60
2023-01-26T06:28:46.743Z,1.60
2023-01-26T06:31:14.622Z,1.60
2023-01-26T06:33:43.211Z,1.60
2023-01-26T06:36:13.801Z,1.60
2023-01-26T06:38:49.679Z,1.60
2023-01-26T06:41:17.824Z,1.60
2023-01-26T06:43:49.586Z,1.50
2023-01-26T06:46:17.765Z,1.60
2023-01-26T06:48:45.698Z,1.50
2023-01-26T06:51:15.462Z,1.60
2023-01-26T06:53:47.567Z,1.50
2023-01-26T06:56:28.648Z,1.40
2023-01-26T06:59:16.458Z,1.40
2023-01-26T07:01:54.827Z,1.40
2023-01-26T07:04:28.297Z,1.40
2023-01-26T07:06:55.377Z,1.40
2023-01-26T07:09:22.556Z,1.40
2023-01-26T07:14:20.199Z,1.40
2023-01-26T07:16:47.683Z,1.40
2023-01-26T07:19:14.760Z,1.40
2023-01-26T07:21:48.824Z,1.40
2023-01-26T07:24:17.291Z,1.40
2023-01-26T07:26:44.308Z,1.40
2023-01-26T07:29:11.358Z,1.40
2023-01-26T07:31:40.984Z,1.50
2023-01-26T07:34:09.399Z,1.50
2023-01-26T07:36:36.337Z,1.50
2023-01-26T07:39:08.319Z,1.40
2023-01-26T07:41:36.062Z,1.40
2023-01-26T07:44:13.433Z,1.30
2023-01-26T07:46:41.600Z,1.40
2023-01-26T07:49:08.772Z,1.40
2023-01-26T07:51:39.713Z,1.40
2023-01-26T07:54:07.096Z,1.40
2023-01-26T07:56:34.760Z,1.30
2023-01-26T07:59:03.742Z,1.50
2023-01-26T08:01:32.810Z,1.50
2023-01-26T08:04:04.447Z,1.60
2023-01-26T08:06:31.394Z,1.70
2023-01-26T08:09:00.973Z,1.80
2023-01-26T08:11:29.809Z,1.90
2023-01-26T08:13:57.054Z,2.00
2023-01-26T08:16:23.940Z,2.10
2023-01-26T08:18:51.071Z,2.10
2023-01-26T08:21:21.102Z,2.00
2023-01-26T08:23:52.533Z,2.10
2023-01-26T08:26:20.367Z,2.00
2023-01-26T08:28:47.820Z,2.00
2023-01-26T08:31:18.601Z,2.00
2023-01-26T08:33:52.471Z,2.00
2023-01-26T08:36:22.304Z,1.90
2023-01-26T08:38:49.663Z,1.90
2023-01-26T08:41:19.504Z,1.90
2023-01-26T08:43:46.323Z,1.90
2023-01-26T08:46:13.362Z,1.90
2023-01-26T08:48:40.519Z,1.90
2023-01-26T08:51:10.440Z,1.90
2023-01-26T08:53:38.160Z,2.00
2023-01-26T08:56:07.431Z,2.00
2023-01-26T08:58:36.135Z,2.10
2023-01-26T09:01:14.193Z,2.10
2023-01-26T09:03:44.706Z,2.00
2023-01-26T09:06:13.673Z,2.10
2023-01-26T09:08:41.097Z,2.00
2023-01-26T09:11:12.216Z,2.10
2023-01-26T09:13:40.054Z,2.20
2023-01-26T09:16:12.551Z,2.10
2023-01-26T09:18:39.722Z,2.10
2023-01-26T09:21:09.838Z,1.90
2023-01-26T09:23:39.332Z,1.80
2023-01-26T09:26:06.324Z,1.80
2023-01-26T09:28:33.343Z,1.70
2023-01-26T09:31:10.909Z,1.60
2023-01-26T09:33:38.209Z,1.70
2023-01-26T09:36:11.368Z,1.70
2023-01-26T09:38:38.986Z,1.70
2023-01-26T09:41:48.562Z,1.60
2023-01-26T09:44:26.553Z,1.70
2023-01-26T09:47:21.412Z,1.60
2023-01-26T09:50:01.650Z,1.60
2023-01-26T09:52:51.663Z,1.60
2023-01-26T09:55:22.108Z,1.70
2023-01-26T09:58:04.398Z,1.70
2023-01-26T10:00:40.789Z,1.60
2023-01-26T10:03:24.127Z,1.70
2023-01-26T10:06:29.560Z,2.00
2023-01-26T10:09:26.738Z,2.00
2023-01-26T10:11:58.372Z,2.00
2023-01-26T10:14:30.729Z,2.00
2023-01-26T10:16:59.732Z,2.00
2023-01-26T10:19:51.135Z,2.00
2023-01-26T10:22:33.056Z,2.00
2023-01-26T10:25:01.209Z,1.90
2023-01-26T10:27:29.624Z,2.20
2023-01-26T10:29:56.530Z,2.20
2023-01-26T10:32:26.796Z,2.20
2023-01-26T10:34:56.189Z,2.10
2023-01-26T10:37:28.429Z,2.00
2023-01-26T10:40:07.669Z,2.10
2023-01-26T10:42:39.052Z,1.80
2023-01-26T10:45:33.944Z,1.80
2023-01-26T10:48:05.948Z,1.70
2023-01-26T10:50:33.069Z,1.80
2023-01-26T10:53:02.682Z,1.90
2023-01-26T10:55:31.122Z,1.70
2023-01-26T10:57:58.505Z,1.50
2023-01-26T11:00:29.544Z,1.60
2023-01-26T11:03:17.870Z,1.60
2023-01-26T11:05:48.168Z,1.50
2023-01-26T11:08:44.177Z,1.40
2023-01-26T11:11:29.486Z,1.30
2023-01-26T11:14:22.258Z,1.40
2023-01-26T11:17:18.127Z,1.50
2023-01-26T11:19:48.960Z,1.80
2023-01-26T11:22:22.830Z,1.80
2023-01-26T11:24:55.846Z,1.90
2023-01-26T11:27:47.519Z,1.90
2023-01-26T11:30:37.308Z,1.90
2023-01-26T11:33:29.374Z,2.00
2023-01-26T11:36:18.280Z,2.10
2023-01-26T11:39:00.900Z,2.00
2023-01-26T11:41:52.885Z,2.10
2023-01-26T11:44:35.473Z,2.20
2023-01-26T11:47:23.750Z,2.20
2023-01-26T11:50:25.669Z,2.00
2023-01-26T11:53:27.260Z,1.90
2023-01-26T11:56:25.772Z,1.90
2023-01-26T11:59:06.454Z,1.80
2023-01-26T12:01:44.084Z,1.90
2023-01-26T12:04:19.349Z,2.00
2023-01-26T12:07:08.262Z,1.90
2023-01-26T12:09:53.976Z,1.90
2023-01-26T12:12:38.389Z,2.00
2023-01-26T12:15:29.130Z,2.00
2023-01-26T12:18:06.367Z,2.00
2023-01-26T12:20:46.655Z,1.80
2023-01-26T12:23:15.780Z,1.70
2023-01-26T12:25:53.136Z,1.80
2023-01-26T12:28:39.501Z,1.90
2023-01-26T12:31:22.914Z,2.00
2023-01-26T12:33:54.575Z,1.80
2023-01-26T12:37:03.426Z,1.80
2023-01-26T12:39:39.773Z,1.60
2023-01-26T12:42:29.997Z,1.60
2023-01-26T12:45:04.820Z,1.60
2023-01-26T12:47:40.101Z,1.20
2023-01-26T12:50:32.422Z,1.00
2023-01-26T12:53:02.608Z,1.10
2023-01-26T12:55:39.252Z,1.10
2023-01-26T12:58:31.619Z,1.20
2023-01-26T13:01:05.617Z,1.30
2023-01-26T13:03:43.409Z,1.50
2023-01-26T13:06:12.402Z,1.30
2023-01-26T13:08:53.745Z,1.20
2023-01-26T13:11:39.233Z,1.00
2023-01-26T13:14:33.613Z,0.90
2023-01-26T13:17:20.806Z,1.00
2023-01-26T13:19:59.666Z,1.10
2023-01-26T13:22:41.275Z,1.10
2023-01-26T13:25:18.894Z,1.10
2023-01-26T13:27:56.684Z,1.10
2023-01-26T13:30:23.811Z,1.10
2023-01-26T13:32:52.519Z,1.20
2023-01-26T13:35:23.205Z,1.30
2023-01-26T13:37:52.325Z,1.40
2023-01-26T13:40:34.626Z,1.40
2023-01-26T13:43:29.445Z,1.40
2023-01-26T13:46:25.143Z,1.50
2023-01-26T13:48:54.371Z,1.70
2023-01-26T13:53:58.685Z,1.80
2023-01-26T13:56:37.742Z,1.80
2023-01-26T13:59:25.908Z,1.40
2023-01-26T14:01:55.331Z,1.10
2023-01-26T14:04:28.510Z,1.00
2023-01-26T14:07:02.614Z,1.10
2023-01-26T14:09:41.642Z,1.10
2023-01-26T14:12:25.651Z,1.00
2023-01-26T14:15:03.973Z,1.10
2023-01-26T14:17:34.243Z,1.20
2023-01-26T14:20:33.223Z,1.10
2023-01-26T14:23:18.578Z,1.20
2023-01-26T14:26:20.750Z,1.30
2023-01-26T14:31:20.859Z,1.50
2023-01-26T14:33:55.316Z,1.20
2023-01-26T14:38:52.127Z,1.00
2023-01-26T14:41:30.533Z,0.90
2023-01-26T14:44:01.918Z,0.90
2023-01-26T14:46:41.783Z,1.00
2023-01-26T14:49:15.823Z,1.20
2023-01-26T14:51:45.591Z,1.30
2023-01-26T14:54:27.614Z,1.30
2023-01-26T14:59:23.710Z,1.20
2023-01-26T15:02:04.809Z,0.90
2023-01-26T15:04:40.319Z,1.00
2023-01-26T15:07:32.309Z,0.90
2023-01-26T15:10:02.368Z,1.00
2023-01-26T15:12:35.070Z,1.00
2023-01-26T15:15:04.682Z,0.90
2023-01-26T15:17:40.363Z,1.10
2023-01-26T15:20:16.481Z,1.20
2023-01-26T15:22:51.758Z,1.30
2023-01-26T15:25:28.865Z,1.30
2023-01-26T15:27:58.819Z,1.30
2023-01-26T15:30:35.341Z,1.30
2023-01-26T15:33:02.787Z,1.30
2023-01-26T15:35:31.914Z,1.40
2023-01-26T15:38:10.138Z,1.40
2023-01-26T15:40:38.077Z,1.40
2023-01-26T15:43:19.211Z,1.30
2023-01-26T15:46:02.177Z,1.30
2023-01-26T15:48:34.923Z,1.20
2023-01-26T15:51:01.836Z,1.20
2023-01-26T15:53:28.711Z,1.30
2023-01-26T15:55:57.141Z,1.20
2023-01-26T15:58:24.693Z,1.20
2023-01-26T16:00:54.457Z,1.30
2023-01-26T16:03:22.403Z,1.20
2023-01-26T16:05:49.739Z,1.20
2023-01-26T16:08:17.938Z,1.30
2023-01-26T16:10:46.466Z,1.10
2023-01-26T16:13:18.523Z,1.00
2023-01-26T16:15:48.549Z,1.00
2023-01-26T16:18:19.218Z,1.00
2023-01-26T16:20:48.625Z,1.00
2023-01-26T16:23:22.618Z,1.00
2023-01-26T16:25:52.404Z,1.20
2023-01-26T16:28:20.007Z,1.20
2023-01-26T16:30:50.894Z,1.20
2023-01-26T16:33:33.062Z,1.10
2023-01-26T16:36:04.501Z,1.10
2023-01-26T16:38:31.444Z,1.00
2023-01-26T16:41:02.609Z,1.10
2023-01-26T16:43:30.372Z,1.10
2023-01-26T16:46:02.553Z,1.00
2023-01-26T16:48:34.678Z,1.00
2023-01-26T16:51:21.207Z,1.00
2023-01-26T16:53:48.618Z,1.10
2023-01-26T16:56:16.165Z,1.10
2023-01-26T16:58:43.051Z,1.10
2023-01-26T17:01:20.676Z,1.20
2023-01-26T17:03:50.953Z,1.20
2023-01-26T17:06:19.562Z,1.10
2023-01-26T17:08:46.810Z,0.90
2023-01-26T17:11:28.088Z,0.80
2023-01-26T17:13:56.508Z,0.90
2023-01-26T17:16:29.286Z,1.00
2023-01-26T17:18:58.741Z,1.00
2023-01-26T17:21:28.373Z,1.10
2023-01-26T17:23:57.092Z,1.10
2023-01-26T17:26:24.236Z,1.20
2023-01-26T17:28:55.081Z,1.20
2023-01-26T17:31:23.922Z,1.20
2023-01-26T17:33:51.573Z,1.20
2023-01-26T17:36:19.213Z,1.20
2023-01-26T17:38:47.206Z,1.10
2023-01-26T17:41:16.603Z,1.00
2023-01-26T17:43:43.503Z,1.00
2023-01-26T17:46:13.799Z,0.90
2023-01-26T17:48:41.106Z,0.80
2023-01-26T17:51:20.125Z,0.80
2023-01-26T17:53:52.600Z,0.70
2023-01-26T17:56:22.912Z,0.80
2023-01-26T17:58:52.873Z,0.90
2023-01-26T18:01:21.161Z,1.00
2023-01-26T18:03:48.540Z,1.00
2023-01-26T18:06:15.498Z,1.00
2023-01-26T18:08:42.799Z,1.10
2023-01-26T18:11:11.580Z,1.00
2023-01-26T18:13:40.994Z,1.10
2023-01-26T18:16:15.073Z,1.10
2023-01-26T18:18:42.427Z,1.00
2023-01-26T18:21:29.072Z,0.80
2023-01-26T18:24:02.521Z,0.90
2023-01-26T18:26:32.269Z,1.00
2023-01-26T18:29:01.904Z,1.00
2023-01-26T18:31:32.871Z,1.00
2023-01-26T18:34:01.129Z,0.90
2023-01-26T18:36:38.636Z,0.90
2023-01-26T18:39:12.219Z,0.90
2023-01-26T18:41:40.836Z,1.00
2023-01-26T18:44:10.183Z,1.00
2023-01-26T18:46:41.955Z,1.10
2023-01-26T18:49:11.502Z,1.00
2023-01-26T18:51:38.592Z,1.00
2023-01-26T18:54:09.695Z,1.00
2023-01-26T18:56:36.780Z,1.10
2023-01-26T18:59:04.328Z,1.20
2023-01-26T19:01:31.326Z,1.10
2023-01-26T19:04:03.049Z,1.10
2023-01-26T19:06:32.865Z,1.20
2023-01-26T19:09:02.838Z,1.10
2023-01-26T19:11:34.487Z,1.10
2023-01-26T19:14:05.220Z,1.20
2023-01-26T19:16:34.556Z,1.20
2023-01-26T19:19:01.617Z,1.10
2023-01-26T19:21:28.803Z,1.00
2023-01-26T19:23:58.696Z,1.10
2023-01-26T19:26:29.603Z,1.10
2023-01-26T19:28:57.213Z,1.00
2023-01-26T19:31:26.569Z,0.90
2023-01-26T19:33:55.339Z,0.70
2023-01-26T19:36:26.102Z,0.70
2023-01-26T19:38:53.550Z,0.90
2023-01-26T19:41:21.433Z,0.70
2023-01-26T19:43:50.859Z,0.60
2023-01-26T19:46:19.383Z,0.60
2023-01-26T19:48:48.843Z,0.50
2023-01-26T19:51:21.685Z,0.50
2023-01-26T19:53:51.724Z,0.40
2023-01-26T19:56:32.805Z,0.30
2023-01-26T19:59:07.996Z,0.30
2023-01-26T20:01:35.333Z,0.30
2023-01-26T20:04:06.693Z,0.40
2023-01-26T20:06:37.170Z,0.30
2023-01-26T20:09:08.966Z,0.20
2023-01-26T20:11:36.936Z,0.20
2023-01-26T20:14:09.016Z,0.20
2023-01-26T20:16:38.203Z,0.30
2023-01-26T20:19:05.175Z,0.30
2023-01-26T20:21:33.499Z,0.20
2023-01-26T20:24:05.642Z,0.20
2023-01-26T20:26:33.904Z,0.20
2023-01-26T20:29:01.184Z,0.20
2023-01-26T20:31:28.214Z,0.10
2023-01-26T20:33:59.977Z,0.10
2023-01-26T20:36:28.241Z,0.00
2023-01-26T20:38:56.655Z,0.00
2023-01-26T20:41:27.153Z,0.00
2023-01-26T20:44:00.422Z,0.10
2023-01-26T20:46:32.960Z,0.10
2023-01-26T20:49:01.227Z,0.20
2023-01-26T20:51:35.736Z,0.20
2023-01-26T20:54:07.168Z,0.30
2023-01-26T20:56:37.401Z,0.20
2023-01-26T20:59:05.751Z,0.10
2023-01-26T21:01:36.524Z,0.00
2023-01-26T21:04:07.204Z,-0.10
2023-01-26T21:06:36.867Z,-0.10
2023-01-26T21:09:10.891Z,-0.20
2023-01-26T21:11:39.718Z,-0.20
2023-01-26T21:14:06.542Z,-0.30
2023-01-26T21:16:36.566Z,-0.30
2023-01-26T21:19:03.613Z,-0.20
2023-01-26T21:21:33.176Z,-0.10
2023-01-26T21:24:02.344Z,-0.20
2023-01-26T21:26:30.218Z,-0.30
2023-01-26T21:28:59.676Z,-0.30
2023-01-26T21:31:32.066Z,-0.30
2023-01-26T21:34:04.973Z,-0.20
2023-01-26T21:36:34.901Z,-0.20
2023-01-26T21:39:04.788Z,-0.30
2023-01-26T21:41:53.292Z,-0.30
2023-01-26T21:44:30.694Z,-0.20
2023-01-26T21:47:03.287Z,-0.20
2023-01-26T21:49:30.288Z,-0.30
2023-01-26T21:52:21.491Z,-0.30
2023-01-26T21:54:50.605Z,-0.30
2023-01-26T21:57:36.072Z,-0.20
2023-01-26T22:00:03.297Z,-0.20
2023-01-26T22:02:34.129Z,-0.10
2023-01-26T22:05:01.186Z,-0.20
2023-01-26T22:07:32.117Z,-0.20
2023-01-26T22:10:00.042Z,-0.20
2023-01-26T22:12:29.918Z,-0.20
2023-01-26T22:14:57.206Z,-0.10
2023-01-26T22:17:24.501Z,-0.20
2023-01-26T22:20:00.743Z,-0.10
2023-01-26T22:22:30.948Z,-0.10
2023-01-26T22:25:00.863Z,-0.20
2023-01-26T22:27:27.779Z,-0.10
2023-01-26T22:29:57.145Z,-0.20
2023-01-26T22:32:24.187Z,-0.10
2023-01-26T22:34:51.107Z,0.00
2023-01-26T22:37:17.912Z,0.20
2023-01-26T22:39:44.859Z,0.20
2023-01-26T22:42:16.334Z,0.10
2023-01-26T22:44:43.891Z,0.10
2023-01-26T22:47:12.544Z,0.00
2023-01-26T22:49:42.121Z,0.20
2023-01-26T22:52:11.683Z,0.10
2023-01-26T22:54:40.904Z,0.00
2023-01-26T22:57:12.595Z,-0.10
2023-01-26T22:59:42.108Z,-0.10
2023-01-26T23:02:09.300Z,-0.10
2023-01-26T23:04:39.216Z,-0.10
2023-01-26T23:07:13.784Z,0.00
2023-01-26T23:09:43.360Z,-0.10
2023-01-26T23:12:10.220Z,0.00
2023-01-26T23:14:37.413Z,0.00
2023-01-26T23:17:05.493Z,-0.20
2023-01-26T23:19:33.616Z,-0.10
2023-01-26T23:22:00.777Z,-0.10
2023-01-26T23:24:27.696Z,0.00
2023-01-26T23:26:57.077Z,0.00
2023-01-26T23:29:24.056Z,-0.10
2023-01-26T23:31:53.807Z,-0.10
2023-01-26T23:34:21.557Z,0.00
2023-01-26T23:36:48.653Z,0.10
2023-01-26T23:39:15.700Z,0.20
2023-01-26T23:41:42.529Z,0.20
2023-01-26T23:44:10.430Z,0.20
2023-01-26T23:46:37.460Z,0.30
2023-01-26T23:49:04.321Z,0.40
2023-01-26T23:51:31.120Z,0.20
2023-01-26T23:53:58.044Z,0.10
2023-01-26T23:56:24.947Z,0.10
2023-01-26T23:58:51.835Z,0.10
